CSN7701 ZSNJ-ZSJN
Flight info
| Callsign | CSN7701 |
|---|---|
| Flight time | N/A |
| Altitude | 27600 |
| Route | OF52X OF A470 DPX A593 ABTUB ABTUB6W |
| Aircraft | A321/M-SDE3FGHIRWY/LB1 |
Departure
| Time | 2026-04-29 14:41 |
|---|---|
| Airport | Nanjing Lukou International Airport (ZSNJ) |
Arrival
| Time | N/A |
|---|---|
| Airport | Jinan Yaoqiang International Airport (ZSJN) |
| Time | Latitude | Longitude | Altitude | Speed | Heading |
|---|---|---|---|---|---|
| 2026-04-29 14:00 | 31.73400 | 118.87678 | 58 ft | 0 kts | 328° |
| 2026-04-29 14:36 | 31.73396 | 118.87681 | 51 ft | 3 kts | 328° |
| 2026-04-29 14:36 | 31.73373 | 118.87697 | 54 ft | 4 kts | 330° |
| 2026-04-29 14:36 | 31.73341 | 118.87716 | 54 ft | 4 kts | 338° |
| 2026-04-29 14:36 | 31.73324 | 118.87723 | 53 ft | 4 kts | 352° |
| 2026-04-29 14:37 | 31.73302 | 118.87721 | 53 ft | 2 kts | 54° |
| 2026-04-29 14:37 | 31.73300 | 118.87719 | 52 ft | 0 kts | 58° |
| 2026-04-29 14:38 | 31.73301 | 118.87720 | 58 ft | 1 kts | 58° |
| 2026-04-29 14:39 | 31.73330 | 118.87775 | 51 ft | 14 kts | 58° |
| 2026-04-29 14:39 | 31.73359 | 118.87884 | 58 ft | 15 kts | 122° |
| 2026-04-29 14:39 | 31.73258 | 118.87889 | 54 ft | 16 kts | 171° |
| 2026-04-29 14:39 | 31.73151 | 118.87962 | 55 ft | 19 kts | 147° |
| 2026-04-29 14:40 | 31.73049 | 118.87983 | 53 ft | 15 kts | 224° |
| 2026-04-29 14:40 | 31.72973 | 118.87846 | 51 ft | 39 kts | 238° |
| 2026-04-29 14:40 | 31.72703 | 118.87342 | 54 ft | 103 kts | 238° |
| 2026-04-29 14:40 | 31.72228 | 118.86457 | 56 ft | 151 kts | 238° |
| 2026-04-29 14:41 | 31.71625 | 118.85337 | 441 ft | 162 kts | 238° |
| 2026-04-29 14:41 | 31.71020 | 118.84225 | 1164 ft | 161 kts | 237° |
| 2026-04-29 14:41 | 31.70387 | 118.83068 | 1536 ft | 180 kts | 237° |
| 2026-04-29 14:41 | 31.69676 | 118.81752 | 1808 ft | 202 kts | 238° |
| 2026-04-29 14:42 | 31.68878 | 118.80266 | 2134 ft | 227 kts | 238° |
| 2026-04-29 14:42 | 31.68027 | 118.78668 | 2787 ft | 238 kts | 240° |
| 2026-04-29 14:42 | 31.67523 | 118.76777 | 3548 ft | 245 kts | 268° |
| 2026-04-29 14:42 | 31.67496 | 118.74763 | 4384 ft | 249 kts | 271° |
| 2026-04-29 14:43 | 31.67639 | 118.72714 | 5235 ft | 250 kts | 289° |
| 2026-04-29 14:43 | 31.68457 | 118.70936 | 6077 ft | 248 kts | 316° |
| 2026-04-29 14:43 | 31.69844 | 118.69781 | 6934 ft | 245 kts | 341° |
| 2026-04-29 14:43 | 31.71510 | 118.69414 | 7732 ft | 246 kts | 357° |
| 2026-04-29 14:44 | 31.73234 | 118.69279 | 8538 ft | 251 kts | 356° |
| 2026-04-29 14:44 | 31.74996 | 118.69140 | 9327 ft | 256 kts | 356° |
| 2026-04-29 14:44 | 31.76790 | 118.68994 | 10106 ft | 261 kts | 355° |
| 2026-04-29 14:44 | 31.78620 | 118.68841 | 10816 ft | 265 kts | 354° |
| 2026-04-29 14:45 | 31.80471 | 118.68682 | 11553 ft | 268 kts | 354° |
| 2026-04-29 14:45 | 31.82334 | 118.68384 | 12132 ft | 278 kts | 347° |
| 2026-04-29 14:45 | 31.84316 | 118.67946 | 12352 ft | 301 kts | 347° |
| 2026-04-29 14:45 | 31.86451 | 118.67468 | 12519 ft | 324 kts | 347° |
| 2026-04-29 14:46 | 31.88744 | 118.66952 | 12696 ft | 345 kts | 347° |
| 2026-04-29 14:46 | 31.91138 | 118.66419 | 13202 ft | 353 kts | 347° |
| 2026-04-29 14:46 | 31.93568 | 118.65883 | 13857 ft | 358 kts | 347° |
| 2026-04-29 14:46 | 31.96031 | 118.65345 | 14464 ft | 362 kts | 347° |
| 2026-04-29 14:47 | 31.98516 | 118.64802 | 15033 ft | 365 kts | 346° |
| 2026-04-29 14:47 | 32.01026 | 118.64253 | 15592 ft | 369 kts | 346° |
| 2026-04-29 14:47 | 32.03559 | 118.63698 | 16148 ft | 372 kts | 346° |
| 2026-04-29 14:47 | 32.06118 | 118.63137 | 16692 ft | 376 kts | 345° |
| 2026-04-29 14:48 | 32.08758 | 118.62559 | 17284 ft | 379 kts | 345° |
| 2026-04-29 14:48 | 32.11339 | 118.61993 | 17847 ft | 383 kts | 345° |
| 2026-04-29 14:48 | 32.13969 | 118.61418 | 18429 ft | 386 kts | 345° |
| 2026-04-29 14:48 | 32.16620 | 118.60832 | 18929 ft | 390 kts | 344° |
| 2026-04-29 14:49 | 32.19295 | 118.60232 | 19434 ft | 393 kts | 343° |
| 2026-04-29 14:49 | 32.21986 | 118.59624 | 19952 ft | 396 kts | 343° |
| 2026-04-29 14:49 | 32.24703 | 118.59010 | 20460 ft | 399 kts | 343° |
| 2026-04-29 14:49 | 32.27441 | 118.58394 | 20962 ft | 402 kts | 343° |
| 2026-04-29 14:50 | 32.30218 | 118.57775 | 21448 ft | 405 kts | 342° |
| 2026-04-29 14:50 | 32.33020 | 118.57151 | 21926 ft | 408 kts | 342° |
| 2026-04-29 14:50 | 32.35816 | 118.56526 | 22378 ft | 411 kts | 342° |
| 2026-04-29 14:50 | 32.38637 | 118.55890 | 22840 ft | 414 kts | 342° |
| 2026-04-29 14:51 | 32.41472 | 118.55249 | 23292 ft | 417 kts | 341° |
| 2026-04-29 14:51 | 32.44328 | 118.54602 | 23740 ft | 420 kts | 341° |
| 2026-04-29 14:51 | 32.47215 | 118.53964 | 24114 ft | 425 kts | 343° |
| 2026-04-29 14:51 | 32.50203 | 118.53736 | 24476 ft | 438 kts | 354° |
| 2026-04-29 14:52 | 32.53272 | 118.54152 | 24833 ft | 451 kts | 4° |
| 2026-04-29 14:52 | 32.56358 | 118.54954 | 25187 ft | 455 kts | 5° |
| 2026-04-29 14:52 | 32.59460 | 118.55768 | 25528 ft | 458 kts | 4° |
| 2026-04-29 14:52 | 32.62580 | 118.56581 | 25861 ft | 460 kts | 3° |
| 2026-04-29 14:53 | 32.65730 | 118.57041 | 26190 ft | 452 kts | 353° |
| 2026-04-29 14:53 | 32.68840 | 118.56914 | 26529 ft | 444 kts | 343° |
| 2026-04-29 14:53 | 32.71844 | 118.56232 | 26879 ft | 435 kts | 335° |
| 2026-04-29 14:53 | 32.74734 | 118.55195 | 27247 ft | 435 kts | 333° |
| 2026-04-29 14:54 | 32.77639 | 118.54145 | 27617 ft | 437 kts | 333° |
| 2026-04-29 14:54 | 32.80561 | 118.53100 | 27790 ft | 439 kts | 333° |
| 2026-04-29 14:54 | 32.83484 | 118.52059 | 27818 ft | 439 kts | 333° |
| 2026-04-29 14:54 | 32.86415 | 118.51019 | 27818 ft | 439 kts | 333° |
| 2026-04-29 14:55 | 32.89346 | 118.49978 | 27814 ft | 440 kts | 333° |
| 2026-04-29 14:55 | 32.92276 | 118.48932 | 27812 ft | 440 kts | 333° |
| 2026-04-29 14:55 | 32.95209 | 118.47882 | 27811 ft | 440 kts | 333° |
| 2026-04-29 14:55 | 32.98140 | 118.46830 | 27809 ft | 440 kts | 333° |
| 2026-04-29 14:56 | 33.01075 | 118.45774 | 27811 ft | 441 kts | 333° |
| 2026-04-29 14:56 | 33.04014 | 118.44717 | 27813 ft | 441 kts | 333° |
| 2026-04-29 14:56 | 33.06994 | 118.43644 | 27809 ft | 441 kts | 333° |
| 2026-04-29 14:56 | 33.09894 | 118.42599 | 27811 ft | 442 kts | 333° |
| 2026-04-29 14:57 | 33.16060 | 118.40381 | 27809 ft | 442 kts | 333° |
| 2026-04-29 14:57 | 33.18048 | 118.39667 | 27807 ft | 442 kts | 333° |
| 2026-04-29 14:57 | 33.21992 | 118.38250 | 27809 ft | 443 kts | 333° |
| 2026-04-29 14:58 | 33.24944 | 118.37188 | 27809 ft | 443 kts | 334° |
| 2026-04-29 14:58 | 33.27893 | 118.36126 | 27810 ft | 443 kts | 334° |
| 2026-04-29 14:58 | 33.29847 | 118.35420 | 27813 ft | 443 kts | 334° |
| 2026-04-29 14:58 | 33.32798 | 118.34350 | 27813 ft | 443 kts | 334° |
| 2026-04-29 14:59 | 33.35747 | 118.33284 | 27813 ft | 443 kts | 334° |
| 2026-04-29 14:59 | 33.38703 | 118.32220 | 27815 ft | 444 kts | 334° |
| 2026-04-29 14:59 | 33.41661 | 118.31157 | 27810 ft | 444 kts | 334° |
| 2026-04-29 14:59 | 33.44617 | 118.30092 | 27812 ft | 444 kts | 334° |
| 2026-04-29 15:00 | 33.47574 | 118.29022 | 27811 ft | 444 kts | 334° |
| 2026-04-29 15:00 | 33.50534 | 118.27949 | 27810 ft | 444 kts | 334° |
| 2026-04-29 15:00 | 33.53493 | 118.26874 | 27801 ft | 444 kts | 334° |
| 2026-04-29 15:00 | 33.56452 | 118.25799 | 27808 ft | 444 kts | 334° |
| 2026-04-29 15:01 | 33.59411 | 118.24722 | 27804 ft | 445 kts | 334° |
| 2026-04-29 15:01 | 33.62375 | 118.23646 | 27807 ft | 445 kts | 334° |
| 2026-04-29 15:01 | 33.65337 | 118.22570 | 27805 ft | 445 kts | 334° |
| 2026-04-29 15:01 | 33.68307 | 118.21490 | 27803 ft | 446 kts | 334° |
| 2026-04-29 15:02 | 33.71313 | 118.20397 | 27801 ft | 446 kts | 334° |
| 2026-04-29 15:02 | 33.74280 | 118.19318 | 27803 ft | 446 kts | 334° |
| 2026-04-29 15:02 | 33.77250 | 118.18238 | 27802 ft | 446 kts | 335° |
| 2026-04-29 15:02 | 33.80220 | 118.17157 | 27807 ft | 446 kts | 335° |
| 2026-04-29 15:03 | 33.83192 | 118.16073 | 27812 ft | 446 kts | 335° |
| 2026-04-29 15:03 | 33.86162 | 118.14993 | 27813 ft | 446 kts | 335° |
| 2026-04-29 15:03 | 33.89137 | 118.13913 | 27816 ft | 446 kts | 335° |
| 2026-04-29 15:03 | 33.92111 | 118.12834 | 27817 ft | 446 kts | 335° |
| 2026-04-29 15:04 | 33.95085 | 118.11752 | 27818 ft | 446 kts | 335° |
| 2026-04-29 15:04 | 33.98058 | 118.10670 | 27819 ft | 446 kts | 335° |
| 2026-04-29 15:04 | 34.01030 | 118.09585 | 27820 ft | 446 kts | 335° |
| 2026-04-29 15:04 | 34.04000 | 118.08506 | 27817 ft | 446 kts | 335° |
| 2026-04-29 15:05 | 34.06977 | 118.07425 | 27819 ft | 446 kts | 335° |
| 2026-04-29 15:05 | 34.09950 | 118.06345 | 27819 ft | 446 kts | 335° |
| 2026-04-29 15:05 | 34.12923 | 118.05265 | 27821 ft | 446 kts | 335° |
| 2026-04-29 15:05 | 34.15899 | 118.04186 | 27820 ft | 446 kts | 335° |
| 2026-04-29 15:06 | 34.18866 | 118.03108 | 27818 ft | 446 kts | 335° |
| 2026-04-29 15:06 | 34.21848 | 118.02022 | 27813 ft | 446 kts | 335° |
| 2026-04-29 15:06 | 34.24818 | 118.00939 | 27819 ft | 446 kts | 335° |
| 2026-04-29 15:06 | 34.27787 | 117.99855 | 27808 ft | 445 kts | 335° |